sensor_id;sensor_type;location;lat;lon;timestamp;P1;durP1;ratioP1;P2;durP2;ratioP2
38972;SDS011;25333;50.762;4.470;2022-12-18T00:01:35;66.47;;;46.97;;
38972;SDS011;25333;50.762;4.470;2022-12-18T00:04:02;65.18;;;45.00;;
38972;SDS011;25333;50.762;4.470;2022-12-18T00:06:29;66.50;;;43.25;;
38972;SDS011;25333;50.762;4.470;2022-12-18T00:08:55;66.90;;;46.20;;
38972;SDS011;25333;50.762;4.470;2022-12-18T00:11:23;64.32;;;45.50;;
38972;SDS011;25333;50.762;4.470;2022-12-18T00:13:50;67.00;;;46.40;;
38972;SDS011;25333;50.762;4.470;2022-12-18T00:16:19;68.28;;;43.83;;
38972;SDS011;25333;50.762;4.470;2022-12-18T00:18:47;63.60;;;43.90;;
38972;SDS011;25333;50.762;4.470;2022-12-18T00:21:13;75.55;;;46.83;;
38972;SDS011;25333;50.762;4.470;2022-12-18T00:23:40;58.97;;;44.13;;
38972;SDS011;25333;50.762;4.470;2022-12-18T00:26:10;63.55;;;43.40;;
38972;SDS011;25333;50.762;4.470;2022-12-18T00:28:37;71.70;;;45.63;;
38972;SDS011;25333;50.762;4.470;2022-12-18T00:31:04;66.45;;;43.42;;
38972;SDS011;25333;50.762;4.470;2022-12-18T00:33:35;68.20;;;45.17;;
38972;SDS011;25333;50.762;4.470;2022-12-18T00:36:04;65.30;;;42.78;;
38972;SDS011;25333;50.762;4.470;2022-12-18T00:38:32;64.95;;;41.08;;
38972;SDS011;25333;50.762;4.470;2022-12-18T00:40:58;67.60;;;44.22;;
38972;SDS011;25333;50.762;4.470;2022-12-18T00:43:24;72.93;;;46.55;;
38972;SDS011;25333;50.762;4.470;2022-12-18T00:45:51;65.30;;;44.80;;
38972;SDS011;25333;50.762;4.470;2022-12-18T00:48:17;58.13;;;40.67;;
38972;SDS011;25333;50.762;4.470;2022-12-18T00:50:43;58.05;;;39.13;;
38972;SDS011;25333;50.762;4.470;2022-12-18T00:53:10;60.50;;;39.72;;
38972;SDS011;25333;50.762;4.470;2022-12-18T00:55:37;56.67;;;38.88;;
38972;SDS011;25333;50.762;4.470;2022-12-18T00:58:04;60.58;;;39.67;;
38972;SDS011;25333;50.762;4.470;2022-12-18T01:00:29;61.05;;;40.60;;
38972;SDS011;25333;50.762;4.470;2022-12-18T01:02:55;63.10;;;39.08;;
38972;SDS011;25333;50.762;4.470;2022-12-18T01:05:20;58.42;;;38.67;;
38972;SDS011;25333;50.762;4.470;2022-12-18T01:07:46;59.78;;;39.00;;
38972;SDS011;25333;50.762;4.470;2022-12-18T01:10:12;56.20;;;38.40;;
38972;SDS011;25333;50.762;4.470;2022-12-18T01:12:38;58.28;;;37.88;;
38972;SDS011;25333;50.762;4.470;2022-12-18T01:15:05;56.03;;;36.58;;
38972;SDS011;25333;50.762;4.470;2022-12-18T01:17:32;52.65;;;35.50;;
38972;SDS011;25333;50.762;4.470;2022-12-18T01:19:58;63.88;;;38.38;;
38972;SDS011;25333;50.762;4.470;2022-12-18T01:22:24;59.63;;;37.80;;
38972;SDS011;25333;50.762;4.470;2022-12-18T01:24:49;57.97;;;37.53;;
38972;SDS011;25333;50.762;4.470;2022-12-18T01:27:15;53.33;;;34.70;;
38972;SDS011;25333;50.762;4.470;2022-12-18T01:29:41;58.13;;;37.97;;
38972;SDS011;25333;50.762;4.470;2022-12-18T01:32:07;51.25;;;33.17;;
38972;SDS011;25333;50.762;4.470;2022-12-18T01:34:33;48.93;;;34.47;;
38972;SDS011;25333;50.762;4.470;2022-12-18T01:37:02;50.22;;;33.08;;
38972;SDS011;25333;50.762;4.470;2022-12-18T01:39:28;47.13;;;32.17;;
38972;SDS011;25333;50.762;4.470;2022-12-18T01:41:53;50.58;;;34.70;;
38972;SDS011;25333;50.762;4.470;2022-12-18T01:50:18;51.83;;;33.08;;
38972;SDS011;25333;50.762;4.470;2022-12-18T01:52:51;46.92;;;33.70;;
38972;SDS011;25333;50.762;4.470;2022-12-18T01:55:23;55.85;;;33.95;;
38972;SDS011;25333;50.762;4.470;2022-12-18T01:57:52;48.55;;;32.05;;
38972;SDS011;25333;50.762;4.470;2022-12-18T02:00:20;49.38;;;32.35;;
38972;SDS011;25333;50.762;4.470;2022-12-18T02:02:47;48.53;;;31.80;;
38972;SDS011;25333;50.762;4.470;2022-12-18T02:05:18;48.58;;;31.08;;
38972;SDS011;25333;50.762;4.470;2022-12-18T02:08:00;53.80;;;32.13;;
38972;SDS011;25333;50.762;4.470;2022-12-18T02:10:46;42.42;;;27.90;;
38972;SDS011;25333;50.762;4.470;2022-12-18T02:14:00;47.83;;;28.60;;
38972;SDS011;25333;50.762;4.470;2022-12-18T02:16:42;46.47;;;30.77;;
38972;SDS011;25333;50.762;4.470;2022-12-18T02:19:15;42.80;;;29.23;;
38972;SDS011;25333;50.762;4.470;2022-12-18T02:28:20;47.65;;;30.02;;
38972;SDS011;25333;50.762;4.470;2022-12-18T02:30:50;52.38;;;29.38;;
38972;SDS011;25333;50.762;4.470;2022-12-18T02:33:18;44.05;;;29.40;;
38972;SDS011;25333;50.762;4.470;2022-12-18T02:35:45;45.97;;;29.20;;
38972;SDS011;25333;50.762;4.470;2022-12-18T02:38:12;45.92;;;30.10;;
38972;SDS011;25333;50.762;4.470;2022-12-18T02:40:40;46.78;;;28.75;;
38972;SDS011;25333;50.762;4.470;2022-12-18T02:43:09;38.83;;;27.35;;
38972;SDS011;25333;50.762;4.470;2022-12-18T02:45:45;40.17;;;26.67;;
38972;SDS011;25333;50.762;4.470;2022-12-18T02:48:34;39.67;;;25.70;;
38972;SDS011;25333;50.762;4.470;2022-12-18T02:51:03;43.50;;;26.25;;
38972;SDS011;25333;50.762;4.470;2022-12-18T02:53:43;40.33;;;26.13;;
38972;SDS011;25333;50.762;4.470;2022-12-18T02:56:20;36.22;;;25.08;;
38972;SDS011;25333;50.762;4.470;2022-12-18T02:59:53;41.75;;;25.98;;
38972;SDS011;25333;50.762;4.470;2022-12-18T03:04:26;34.55;;;24.27;;
38972;SDS011;25333;50.762;4.470;2022-12-18T03:07:05;38.67;;;24.48;;
38972;SDS011;25333;50.762;4.470;2022-12-18T03:09:36;39.47;;;24.40;;
38972;SDS011;25333;50.762;4.470;2022-12-18T03:12:16;36.35;;;23.38;;
38972;SDS011;25333;50.762;4.470;2022-12-18T03:15:31;36.97;;;23.60;;
38972;SDS011;25333;50.762;4.470;2022-12-18T03:17:44;32.58;;;22.13;;
38972;SDS011;25333;50.762;4.470;2022-12-18T03:20:14;36.83;;;24.08;;
38972;SDS011;25333;50.762;4.470;2022-12-18T03:22:44;33.85;;;22.08;;
38972;SDS011;25333;50.762;4.470;2022-12-18T03:25:14;33.60;;;23.15;;
38972;SDS011;25333;50.762;4.470;2022-12-18T03:27:43;29.25;;;20.27;;
38972;SDS011;25333;50.762;4.470;2022-12-18T03:30:16;31.15;;;19.75;;
38972;SDS011;25333;50.762;4.470;2022-12-18T03:32:44;29.38;;;21.90;;
38972;SDS011;25333;50.762;4.470;2022-12-18T03:35:17;38.22;;;23.95;;
38972;SDS011;25333;50.762;4.470;2022-12-18T03:37:46;36.38;;;22.20;;
38972;SDS011;25333;50.762;4.470;2022-12-18T03:40:11;32.40;;;20.77;;
38972;SDS011;25333;50.762;4.470;2022-12-18T03:42:45;33.07;;;22.43;;
38972;SDS011;25333;50.762;4.470;2022-12-18T03:45:15;34.38;;;23.98;;
38972;SDS011;25333;50.762;4.470;2022-12-18T03:47:51;36.42;;;23.48;;
38972;SDS011;25333;50.762;4.470;2022-12-18T03:52:52;35.22;;;23.60;;
38972;SDS011;25333;50.762;4.470;2022-12-18T03:55:38;35.10;;;23.10;;
38972;SDS011;25333;50.762;4.470;2022-12-18T03:58:05;36.55;;;22.25;;
38972;SDS011;25333;50.762;4.470;2022-12-18T04:00:32;33.90;;;21.67;;
38972;SDS011;25333;50.762;4.470;2022-12-18T04:02:58;36.88;;;22.73;;
38972;SDS011;25333;50.762;4.470;2022-12-18T04:05:27;30.45;;;20.73;;
38972;SDS011;25333;50.762;4.470;2022-12-18T04:07:54;30.65;;;20.13;;
38972;SDS011;25333;50.762;4.470;2022-12-18T04:10:21;35.55;;;22.25;;
38972;SDS011;25333;50.762;4.470;2022-12-18T04:12:47;34.75;;;22.10;;
38972;SDS011;25333;50.762;4.470;2022-12-18T04:15:13;25.35;;;18.10;;
38972;SDS011;25333;50.762;4.470;2022-12-18T04:17:39;36.17;;;20.40;;
38972;SDS011;25333;50.762;4.470;2022-12-18T04:20:14;34.83;;;21.52;;
38972;SDS011;25333;50.762;4.470;2022-12-18T04:22:40;30.67;;;19.27;;
38972;SDS011;25333;50.762;4.470;2022-12-18T04:25:05;33.40;;;21.80;;
38972;SDS011;25333;50.762;4.470;2022-12-18T04:27:31;29.33;;;19.42;;
38972;SDS011;25333;50.762;4.470;2022-12-18T04:29:57;32.73;;;19.83;;
38972;SDS011;25333;50.762;4.470;2022-12-18T04:32:22;30.33;;;19.77;;
38972;SDS011;25333;50.762;4.470;2022-12-18T04:34:48;26.73;;;17.40;;
38972;SDS011;25333;50.762;4.470;2022-12-18T04:37:14;27.67;;;18.90;;
38972;SDS011;25333;50.762;4.470;2022-12-18T04:39:39;26.67;;;18.23;;
38972;SDS011;25333;50.762;4.470;2022-12-18T04:42:05;28.73;;;19.43;;
38972;SDS011;25333;50.762;4.470;2022-12-18T04:44:30;30.33;;;18.63;;
38972;SDS011;25333;50.762;4.470;2022-12-18T04:46:56;27.60;;;17.80;;
38972;SDS011;25333;50.762;4.470;2022-12-18T04:49:22;28.40;;;18.10;;
38972;SDS011;25333;50.762;4.470;2022-12-18T04:51:47;30.27;;;18.45;;
38972;SDS011;25333;50.762;4.470;2022-12-18T04:54:13;24.48;;;16.67;;
38972;SDS011;25333;50.762;4.470;2022-12-18T04:56:39;29.60;;;17.00;;
38972;SDS011;25333;50.762;4.470;2022-12-18T04:59:04;28.20;;;16.67;;
38972;SDS011;25333;50.762;4.470;2022-12-18T05:01:30;27.00;;;16.70;;
38972;SDS011;25333;50.762;4.470;2022-12-18T05:03:58;29.02;;;18.95;;
38972;SDS011;25333;50.762;4.470;2022-12-18T05:06:24;28.00;;;16.40;;
38972;SDS011;25333;50.762;4.470;2022-12-18T05:08:50;28.02;;;17.05;;
38972;SDS011;25333;50.762;4.470;2022-12-18T05:11:17;27.98;;;16.13;;
38972;SDS011;25333;50.762;4.470;2022-12-18T05:13:43;25.65;;;15.05;;
38972;SDS011;25333;50.762;4.470;2022-12-18T05:16:10;28.58;;;17.33;;
38972;SDS011;25333;50.762;4.470;2022-12-18T05:18:37;23.70;;;16.92;;
38972;SDS011;25333;50.762;4.470;2022-12-18T05:21:03;23.58;;;15.93;;
38972;SDS011;25333;50.762;4.470;2022-12-18T05:23:29;24.33;;;15.70;;
38972;SDS011;25333;50.762;4.470;2022-12-18T05:25:58;20.58;;;15.88;;
38972;SDS011;25333;50.762;4.470;2022-12-18T05:28:26;23.38;;;13.70;;
38972;SDS011;25333;50.762;4.470;2022-12-18T05:30:56;22.13;;;14.80;;
38972;SDS011;25333;50.762;4.470;2022-12-18T05:33:24;23.35;;;14.02;;
38972;SDS011;25333;50.762;4.470;2022-12-18T05:35:51;21.38;;;14.35;;
38972;SDS011;25333;50.762;4.470;2022-12-18T05:38:19;20.35;;;14.20;;
38972;SDS011;25333;50.762;4.470;2022-12-18T05:40:45;20.73;;;13.50;;
38972;SDS011;25333;50.762;4.470;2022-12-18T05:43:11;20.80;;;14.98;;
38972;SDS011;25333;50.762;4.470;2022-12-18T05:45:37;22.23;;;13.27;;
38972;SDS011;25333;50.762;4.470;2022-12-18T05:48:04;21.02;;;13.07;;
38972;SDS011;25333;50.762;4.470;2022-12-18T05:50:30;22.65;;;14.57;;
38972;SDS011;25333;50.762;4.470;2022-12-18T05:52:55;21.85;;;14.05;;
38972;SDS011;25333;50.762;4.470;2022-12-18T05:55:21;19.73;;;13.85;;
38972;SDS011;25333;50.762;4.470;2022-12-18T05:57:46;24.27;;;14.07;;
38972;SDS011;25333;50.762;4.470;2022-12-18T06:00:12;22.75;;;14.52;;
38972;SDS011;25333;50.762;4.470;2022-12-18T06:02:38;20.83;;;12.70;;
38972;SDS011;25333;50.762;4.470;2022-12-18T06:05:04;18.55;;;12.88;;
38972;SDS011;25333;50.762;4.470;2022-12-18T06:07:30;20.33;;;13.65;;
38972;SDS011;25333;50.762;4.470;2022-12-18T06:09:55;20.50;;;12.90;;
38972;SDS011;25333;50.762;4.470;2022-12-18T06:12:21;20.13;;;12.83;;
38972;SDS011;25333;50.762;4.470;2022-12-18T06:14:46;23.57;;;13.87;;
38972;SDS011;25333;50.762;4.470;2022-12-18T06:17:12;20.57;;;13.17;;
38972;SDS011;25333;50.762;4.470;2022-12-18T06:19:37;18.30;;;12.93;;
38972;SDS011;25333;50.762;4.470;2022-12-18T06:22:03;16.67;;;11.70;;
38972;SDS011;25333;50.762;4.470;2022-12-18T06:24:29;19.03;;;12.67;;
38972;SDS011;25333;50.762;4.470;2022-12-18T06:26:55;18.60;;;11.85;;
38972;SDS011;25333;50.762;4.470;2022-12-18T06:29:20;16.75;;;10.85;;
38972;SDS011;25333;50.762;4.470;2022-12-18T06:31:46;21.33;;;12.70;;
38972;SDS011;25333;50.762;4.470;2022-12-18T06:34:12;19.30;;;12.33;;
38972;SDS011;25333;50.762;4.470;2022-12-18T06:36:37;17.60;;;11.80;;
38972;SDS011;25333;50.762;4.470;2022-12-18T06:39:03;17.97;;;12.20;;
38972;SDS011;25333;50.762;4.470;2022-12-18T06:41:28;17.47;;;11.37;;
38972;SDS011;25333;50.762;4.470;2022-12-18T06:43:54;19.30;;;11.77;;
38972;SDS011;25333;50.762;4.470;2022-12-18T06:46:19;18.77;;;12.03;;
38972;SDS011;25333;50.762;4.470;2022-12-18T06:48:51;16.53;;;11.87;;
38972;SDS011;25333;50.762;4.470;2022-12-18T06:51:18;18.38;;;11.25;;
38972;SDS011;25333;50.762;4.470;2022-12-18T06:53:45;17.42;;;11.35;;
38972;SDS011;25333;50.762;4.470;2022-12-18T06:56:10;18.37;;;12.27;;
38972;SDS011;25333;50.762;4.470;2022-12-18T06:58:37;17.58;;;10.75;;
38972;SDS011;25333;50.762;4.470;2022-12-18T07:01:04;19.58;;;12.50;;
38972;SDS011;25333;50.762;4.470;2022-12-18T07:03:31;22.17;;;13.52;;
38972;SDS011;25333;50.762;4.470;2022-12-18T07:05:57;15.68;;;10.90;;
38972;SDS011;25333;50.762;4.470;2022-12-18T07:08:23;18.73;;;11.10;;
38972;SDS011;25333;50.762;4.470;2022-12-18T07:10:49;16.92;;;11.60;;
38972;SDS011;25333;50.762;4.470;2022-12-18T07:13:15;18.67;;;12.13;;
38972;SDS011;25333;50.762;4.470;2022-12-18T07:15:41;17.33;;;10.95;;
38972;SDS011;25333;50.762;4.470;2022-12-18T07:18:07;18.50;;;11.15;;
38972;SDS011;25333;50.762;4.470;2022-12-18T07:20:33;18.23;;;10.50;;
38972;SDS011;25333;50.762;4.470;2022-12-18T07:22:58;17.43;;;10.57;;
38972;SDS011;25333;50.762;4.470;2022-12-18T07:25:26;16.65;;;10.90;;
38972;SDS011;25333;50.762;4.470;2022-12-18T07:27:52;16.52;;;10.32;;
38972;SDS011;25333;50.762;4.470;2022-12-18T07:30:17;15.43;;;11.40;;
38972;SDS011;25333;50.762;4.470;2022-12-18T07:32:43;17.88;;;11.38;;
38972;SDS011;25333;50.762;4.470;2022-12-18T07:35:08;16.70;;;10.82;;
38972;SDS011;25333;50.762;4.470;2022-12-18T07:37:34;17.63;;;11.07;;
38972;SDS011;25333;50.762;4.470;2022-12-18T07:39:59;14.27;;;10.00;;
38972;SDS011;25333;50.762;4.470;2022-12-18T07:42:25;17.40;;;10.85;;
38972;SDS011;25333;50.762;4.470;2022-12-18T07:44:57;18.33;;;11.55;;
38972;SDS011;25333;50.762;4.470;2022-12-18T07:47:23;17.40;;;11.80;;
38972;SDS011;25333;50.762;4.470;2022-12-18T07:49:48;18.73;;;11.52;;
38972;SDS011;25333;50.762;4.470;2022-12-18T07:52:14;17.20;;;10.98;;
38972;SDS011;25333;50.762;4.470;2022-12-18T07:54:40;18.80;;;11.45;;
38972;SDS011;25333;50.762;4.470;2022-12-18T07:57:06;17.27;;;11.43;;
38972;SDS011;25333;50.762;4.470;2022-12-18T07:59:32;17.42;;;11.15;;
38972;SDS011;25333;50.762;4.470;2022-12-18T08:01:58;19.23;;;11.30;;
38972;SDS011;25333;50.762;4.470;2022-12-18T08:04:23;18.03;;;11.60;;
38972;SDS011;25333;50.762;4.470;2022-12-18T08:06:49;17.00;;;11.70;;
38972;SDS011;25333;50.762;4.470;2022-12-18T08:09:15;17.65;;;11.02;;
38972;SDS011;25333;50.762;4.470;2022-12-18T08:11:43;17.23;;;10.98;;
38972;SDS011;25333;50.762;4.470;2022-12-18T08:14:08;15.20;;;11.03;;
38972;SDS011;25333;50.762;4.470;2022-12-18T08:16:34;17.55;;;11.55;;
38972;SDS011;25333;50.762;4.470;2022-12-18T08:19:00;17.27;;;12.20;;
38972;SDS011;25333;50.762;4.470;2022-12-18T08:21:28;18.53;;;11.57;;
38972;SDS011;25333;50.762;4.470;2022-12-18T08:23:56;14.95;;;10.30;;
38972;SDS011;25333;50.762;4.470;2022-12-18T08:26:24;16.53;;;10.30;;
38972;SDS011;25333;50.762;4.470;2022-12-18T08:28:51;19.10;;;11.70;;
38972;SDS011;25333;50.762;4.470;2022-12-18T08:31:19;18.63;;;11.82;;
38972;SDS011;25333;50.762;4.470;2022-12-18T08:33:45;17.63;;;10.98;;
38972;SDS011;25333;50.762;4.470;2022-12-18T08:36:17;15.90;;;10.20;;
38972;SDS011;25333;50.762;4.470;2022-12-18T08:38:44;18.65;;;11.13;;
38972;SDS011;25333;50.762;4.470;2022-12-18T08:41:10;17.15;;;10.95;;
38972;SDS011;25333;50.762;4.470;2022-12-18T08:43:37;14.40;;;9.63;;
38972;SDS011;25333;50.762;4.470;2022-12-18T08:46:22;17.17;;;11.40;;
38972;SDS011;25333;50.762;4.470;2022-12-18T08:48:53;15.63;;;10.73;;
38972;SDS011;25333;50.762;4.470;2022-12-18T08:51:20;15.25;;;10.48;;
38972;SDS011;25333;50.762;4.470;2022-12-18T08:53:45;14.82;;;9.88;;
38972;SDS011;25333;50.762;4.470;2022-12-18T08:56:12;15.75;;;11.75;;
38972;SDS011;25333;50.762;4.470;2022-12-18T08:58:38;13.57;;;10.05;;
38972;SDS011;25333;50.762;4.470;2022-12-18T09:01:04;16.23;;;10.25;;
38972;SDS011;25333;50.762;4.470;2022-12-18T09:03:32;13.90;;;9.70;;
38972;SDS011;25333;50.762;4.470;2022-12-18T09:05:58;17.27;;;11.73;;
38972;SDS011;25333;50.762;4.470;2022-12-18T09:08:24;16.70;;;11.65;;
38972;SDS011;25333;50.762;4.470;2022-12-18T09:10:51;13.77;;;10.63;;
38972;SDS011;25333;50.762;4.470;2022-12-18T09:13:16;17.23;;;11.02;;
38972;SDS011;25333;50.762;4.470;2022-12-18T09:15:44;19.15;;;11.30;;
38972;SDS011;25333;50.762;4.470;2022-12-18T09:18:12;17.83;;;11.75;;
38972;SDS011;25333;50.762;4.470;2022-12-18T09:20:39;16.13;;;11.32;;
38972;SDS011;25333;50.762;4.470;2022-12-18T09:23:05;17.08;;;11.38;;
38972;SDS011;25333;50.762;4.470;2022-12-18T09:25:32;19.52;;;12.32;;
38972;SDS011;25333;50.762;4.470;2022-12-18T09:28:00;21.55;;;12.57;;
38972;SDS011;25333;50.762;4.470;2022-12-18T09:30:30;27.75;;;17.15;;
38972;SDS011;25333;50.762;4.470;2022-12-18T09:32:58;27.52;;;15.57;;
38972;SDS011;25333;50.762;4.470;2022-12-18T09:35:24;21.37;;;14.50;;
38972;SDS011;25333;50.762;4.470;2022-12-18T09:37:49;31.57;;;18.83;;
38972;SDS011;25333;50.762;4.470;2022-12-18T09:40:19;24.30;;;16.40;;
38972;SDS011;25333;50.762;4.470;2022-12-18T09:42:50;19.98;;;14.18;;
38972;SDS011;25333;50.762;4.470;2022-12-18T09:45:20;18.20;;;12.93;;
38972;SDS011;25333;50.762;4.470;2022-12-18T09:47:47;20.48;;;14.40;;
38972;SDS011;25333;50.762;4.470;2022-12-18T09:50:25;20.17;;;14.50;;
38972;SDS011;25333;50.762;4.470;2022-12-18T09:52:56;21.95;;;15.55;;
38972;SDS011;25333;50.762;4.470;2022-12-18T09:55:32;22.13;;;17.08;;
38972;SDS011;25333;50.762;4.470;2022-12-18T09:58:12;31.73;;;28.38;;
38972;SDS011;25333;50.762;4.470;2022-12-18T10:00:58;22.90;;;14.75;;
38972;SDS011;25333;50.762;4.470;2022-12-18T10:03:23;19.90;;;15.07;;
38972;SDS011;25333;50.762;4.470;2022-12-18T10:06:02;22.07;;;14.47;;
38972;SDS011;25333;50.762;4.470;2022-12-18T10:17:20;23.27;;;16.42;;
38972;SDS011;25333;50.762;4.470;2022-12-18T10:20:02;21.13;;;15.48;;
38972;SDS011;25333;50.762;4.470;2022-12-18T10:22:41;26.80;;;16.88;;
38972;SDS011;25333;50.762;4.470;2022-12-18T10:28:07;27.30;;;17.92;;
38972;SDS011;25333;50.762;4.470;2022-12-18T10:30:37;27.58;;;18.52;;
38972;SDS011;25333;50.762;4.470;2022-12-18T10:33:04;26.10;;;17.88;;
38972;SDS011;25333;50.762;4.470;2022-12-18T10:35:30;24.05;;;15.52;;
38972;SDS011;25333;50.762;4.470;2022-12-18T10:38:07;25.75;;;15.95;;
38972;SDS011;25333;50.762;4.470;2022-12-18T10:40:53;20.77;;;14.52;;
38972;SDS011;25333;50.762;4.470;2022-12-18T10:43:22;25.10;;;17.08;;
38972;SDS011;25333;50.762;4.470;2022-12-18T10:48:27;24.73;;;17.52;;
38972;SDS011;25333;50.762;4.470;2022-12-18T10:50:54;23.83;;;17.75;;
38972;SDS011;25333;50.762;4.470;2022-12-18T10:53:22;24.02;;;16.20;;
38972;SDS011;25333;50.762;4.470;2022-12-18T10:55:50;25.55;;;17.35;;
38972;SDS011;25333;50.762;4.470;2022-12-18T10:58:26;22.60;;;15.53;;
38972;SDS011;25333;50.762;4.470;2022-12-18T11:01:16;24.35;;;16.77;;
38972;SDS011;25333;50.762;4.470;2022-12-18T11:06:21;26.33;;;16.90;;
38972;SDS011;25333;50.762;4.470;2022-12-18T11:11:26;21.63;;;16.25;;
38972;SDS011;25333;50.762;4.470;2022-12-18T11:16:28;21.43;;;16.50;;
38972;SDS011;25333;50.762;4.470;2022-12-18T11:19:09;21.85;;;15.02;;
38972;SDS011;25333;50.762;4.470;2022-12-18T11:21:45;21.15;;;15.48;;
38972;SDS011;25333;50.762;4.470;2022-12-18T11:24:26;18.98;;;13.68;;
38972;SDS011;25333;50.762;4.470;2022-12-18T11:27:00;21.25;;;14.63;;
38972;SDS011;25333;50.762;4.470;2022-12-18T11:29:38;19.40;;;14.18;;
38972;SDS011;25333;50.762;4.470;2022-12-18T11:32:47;20.17;;;14.50;;
38972;SDS011;25333;50.762;4.470;2022-12-18T11:35:01;21.25;;;14.18;;
38972;SDS011;25333;50.762;4.470;2022-12-18T11:37:39;20.98;;;13.75;;
38972;SDS011;25333;50.762;4.470;2022-12-18T11:40:51;21.70;;;14.90;;
38972;SDS011;25333;50.762;4.470;2022-12-18T11:45:52;18.20;;;13.68;;
38972;SDS011;25333;50.762;4.470;2022-12-18T11:48:22;20.38;;;14.05;;
38972;SDS011;25333;50.762;4.470;2022-12-18T11:50:54;18.88;;;13.60;;
38972;SDS011;25333;50.762;4.470;2022-12-18T11:53:21;18.50;;;12.65;;
38972;SDS011;25333;50.762;4.470;2022-12-18T11:56:16;16.45;;;12.30;;
38972;SDS011;25333;50.762;4.470;2022-12-18T12:13:12;18.35;;;13.00;;
38972;SDS011;25333;50.762;4.470;2022-12-18T12:21:23;20.08;;;13.65;;
38972;SDS011;25333;50.762;4.470;2022-12-18T12:32:26;20.13;;;12.75;;
38972;SDS011;25333;50.762;4.470;2022-12-18T12:40:16;17.73;;;12.65;;
38972;SDS011;25333;50.762;4.470;2022-12-18T12:42:51;22.63;;;13.95;;
38972;SDS011;25333;50.762;4.470;2022-12-18T12:45:41;18.23;;;12.75;;
38972;SDS011;25333;50.762;4.470;2022-12-18T12:48:37;21.13;;;13.32;;
38972;SDS011;25333;50.762;4.470;2022-12-18T12:51:21;19.40;;;13.73;;
38972;SDS011;25333;50.762;4.470;2022-12-18T12:53:50;19.13;;;12.60;;
38972;SDS011;25333;50.762;4.470;2022-12-18T12:56:18;17.95;;;12.90;;
38972;SDS011;25333;50.762;4.470;2022-12-18T12:58:57;21.67;;;14.68;;
38972;SDS011;25333;50.762;4.470;2022-12-18T13:01:52;20.80;;;13.90;;
38972;SDS011;25333;50.762;4.470;2022-12-18T13:07:14;19.58;;;13.25;;
38972;SDS011;25333;50.762;4.470;2022-12-18T13:12:37;23.67;;;14.45;;
38972;SDS011;25333;50.762;4.470;2022-12-18T13:15:23;18.13;;;13.65;;
38972;SDS011;25333;50.762;4.470;2022-12-18T13:20:42;20.45;;;13.70;;
38972;SDS011;25333;50.762;4.470;2022-12-18T13:25:53;19.38;;;14.63;;
38972;SDS011;25333;50.762;4.470;2022-12-18T13:28:23;22.45;;;14.35;;
38972;SDS011;25333;50.762;4.470;2022-12-18T13:30:59;18.52;;;13.95;;
38972;SDS011;25333;50.762;4.470;2022-12-18T13:36:00;20.80;;;14.97;;
38972;SDS011;25333;50.762;4.470;2022-12-18T13:38:34;21.13;;;15.32;;
38972;SDS011;25333;50.762;4.470;2022-12-18T13:41:02;25.33;;;15.90;;
38972;SDS011;25333;50.762;4.470;2022-12-18T13:43:33;24.55;;;16.13;;
38972;SDS011;25333;50.762;4.470;2022-12-18T13:49:52;25.95;;;16.73;;
38972;SDS011;25333;50.762;4.470;2022-12-18T13:52:02;25.63;;;16.65;;
38972;SDS011;25333;50.762;4.470;2022-12-18T13:54:41;28.52;;;17.45;;
38972;SDS011;25333;50.762;4.470;2022-12-18T14:00:19;26.63;;;16.55;;
38972;SDS011;25333;50.762;4.470;2022-12-18T14:02:45;26.33;;;16.63;;
38972;SDS011;25333;50.762;4.470;2022-12-18T14:05:30;24.60;;;15.98;;
38972;SDS011;25333;50.762;4.470;2022-12-18T14:08:04;28.73;;;18.00;;
38972;SDS011;25333;50.762;4.470;2022-12-18T14:10:35;26.08;;;16.65;;
38972;SDS011;25333;50.762;4.470;2022-12-18T14:13:05;24.27;;;16.45;;
38972;SDS011;25333;50.762;4.470;2022-12-18T14:15:40;26.17;;;16.73;;
38972;SDS011;25333;50.762;4.470;2022-12-18T14:20:39;26.50;;;16.48;;
38972;SDS011;25333;50.762;4.470;2022-12-18T14:25:54;26.48;;;17.10;;
38972;SDS011;25333;50.762;4.470;2022-12-18T14:28:20;24.30;;;16.13;;
38972;SDS011;25333;50.762;4.470;2022-12-18T14:30:48;27.45;;;19.15;;
38972;SDS011;25333;50.762;4.470;2022-12-18T14:35:53;26.15;;;17.85;;
38972;SDS011;25333;50.762;4.470;2022-12-18T14:38:31;29.33;;;18.88;;
38972;SDS011;25333;50.762;4.470;2022-12-18T14:41:02;26.33;;;18.25;;
38972;SDS011;25333;50.762;4.470;2022-12-18T14:43:35;28.60;;;17.85;;
38972;SDS011;25333;50.762;4.470;2022-12-18T14:46:02;27.58;;;17.55;;
38972;SDS011;25333;50.762;4.470;2022-12-18T14:48:35;28.17;;;20.05;;
38972;SDS011;25333;50.762;4.470;2022-12-18T14:51:02;31.77;;;19.80;;
38972;SDS011;25333;50.762;4.470;2022-12-18T14:53:41;26.70;;;17.67;;
38972;SDS011;25333;50.762;4.470;2022-12-18T14:56:14;27.63;;;19.20;;
38972;SDS011;25333;50.762;4.470;2022-12-18T14:58:45;30.67;;;18.30;;
38972;SDS011;25333;50.762;4.470;2022-12-18T15:01:26;34.53;;;19.20;;
38972;SDS011;25333;50.762;4.470;2022-12-18T15:03:58;28.95;;;19.48;;
38972;SDS011;25333;50.762;4.470;2022-12-18T15:06:26;31.50;;;20.30;;
38972;SDS011;25333;50.762;4.470;2022-12-18T15:08:58;33.05;;;20.30;;
38972;SDS011;25333;50.762;4.470;2022-12-18T15:11:26;28.67;;;18.55;;
38972;SDS011;25333;50.762;4.470;2022-12-18T15:13:57;28.23;;;18.85;;
38972;SDS011;25333;50.762;4.470;2022-12-18T15:16:24;30.88;;;18.92;;
38972;SDS011;25333;50.762;4.470;2022-12-18T15:18:50;29.60;;;20.73;;
38972;SDS011;25333;50.762;4.470;2022-12-18T15:21:17;28.13;;;18.08;;
38972;SDS011;25333;50.762;4.470;2022-12-18T15:26:10;27.27;;;17.75;;
38972;SDS011;25333;50.762;4.470;2022-12-18T15:34:22;29.05;;;18.38;;
38972;SDS011;25333;50.762;4.470;2022-12-18T15:36:24;25.60;;;17.10;;
38972;SDS011;25333;50.762;4.470;2022-12-18T15:38:54;29.55;;;18.48;;
38972;SDS011;25333;50.762;4.470;2022-12-18T15:41:21;29.40;;;17.27;;
38972;SDS011;25333;50.762;4.470;2022-12-18T15:43:48;29.17;;;18.95;;
38972;SDS011;25333;50.762;4.470;2022-12-18T15:46:16;25.60;;;17.65;;
38972;SDS011;25333;50.762;4.470;2022-12-18T15:48:44;29.95;;;18.13;;
38972;SDS011;25333;50.762;4.470;2022-12-18T15:51:13;28.27;;;17.83;;
38972;SDS011;25333;50.762;4.470;2022-12-18T15:53:42;33.03;;;18.75;;
38972;SDS011;25333;50.762;4.470;2022-12-18T15:56:11;27.63;;;17.98;;
38972;SDS011;25333;50.762;4.470;2022-12-18T15:58:56;30.65;;;18.55;;
38972;SDS011;25333;50.762;4.470;2022-12-18T16:01:29;26.50;;;18.25;;
38972;SDS011;25333;50.762;4.470;2022-12-18T16:03:56;26.90;;;18.35;;
38972;SDS011;25333;50.762;4.470;2022-12-18T16:06:22;26.92;;;17.45;;
38972;SDS011;25333;50.762;4.470;2022-12-18T16:08:48;29.38;;;17.95;;
38972;SDS011;25333;50.762;4.470;2022-12-18T16:11:24;30.27;;;19.20;;
38972;SDS011;25333;50.762;4.470;2022-12-18T16:14:04;27.45;;;17.45;;
38972;SDS011;25333;50.762;4.470;2022-12-18T16:16:31;26.00;;;19.17;;
38972;SDS011;25333;50.762;4.470;2022-12-18T16:18:56;29.50;;;19.80;;
38972;SDS011;25333;50.762;4.470;2022-12-18T16:21:22;26.77;;;18.07;;
38972;SDS011;25333;50.762;4.470;2022-12-18T16:23:48;28.10;;;18.80;;
38972;SDS011;25333;50.762;4.470;2022-12-18T16:26:13;32.03;;;20.80;;
38972;SDS011;25333;50.762;4.470;2022-12-18T16:28:39;27.25;;;19.92;;